»·PEaware :: DAL1948 KBOI-KSLC

DAL1948 :: KBOI-KSLC

FLIGHT INFORMATION

Flight Status: Arrived
Operator:
Delta Air Lines
More flights by this operator :: More flights under this callsign
Pilot: Sanjiv S. (4490)
Aircraft: AIRBUS A319
(A319)
More flights by this aircraft type
Origin: KBOI Boise Air Terminal/Gowen
United States
Destination: KSLC Salt Lake City Intl
United States
More flights between these airports :: More routes between these airports
Route: +BOI ROARR BYI SKEES5
File this flight plan on PilotEdge
Remarks:
Altitude:
(Current/Filed)
33,000ft
Speed:
(Current/Filed)
420kts
Departed: 02-Mar-18 09:22 PM
Arrived: 02-Mar-18 10:15 PM
Distance/Time
Traveled:
251nm/0:52
Distance/Time
To Go:
Arrived

Flight Plot

Page will automatically refresh every two minutes.

Flight plan parsing failed; only flown route is shown


Map Options




Map Legend


Flown Route
Filed Route
Departure Airport
Arrival Airport
Navaid (VOR, NDB)
Fix

Horizontal Profiles

Position Reports

Time Latitude Longitude Heading Altitude Ground
Speed
02-Mar-18 20:45 43.567010 -116.217841 292 2852ft 0kts
02-Mar-18 20:46 43.567010 -116.217841 292 2852ft 0kts
02-Mar-18 20:47 43.567010 -116.217841 292 2852ft 0kts
02-Mar-18 20:48 43.567010 -116.217841 292 2852ft 0kts
02-Mar-18 20:49 43.567010 -116.217841 292 2852ft 0kts
02-Mar-18 20:50 43.567010 -116.217841 292 2852ft 0kts
02-Mar-18 20:51 43.567010 -116.217841 292 2852ft 0kts
02-Mar-18 20:52 43.567010 -116.217841 292 2852ft 0kts
02-Mar-18 20:53 43.567010 -116.217841 292 2852ft 0kts
02-Mar-18 20:54 43.567010 -116.217841 292 2852ft 0kts
02-Mar-18 20:55 43.567010 -116.217841 292 2852ft 0kts
02-Mar-18 20:56 43.567010 -116.217841 292 2852ft 0kts
02-Mar-18 20:57 43.567010 -116.217841 292 2852ft 0kts
02-Mar-18 20:58 43.567010 -116.217841 292 2852ft 0kts
02-Mar-18 20:59 43.567010 -116.217841 292 2852ft 0kts
02-Mar-18 21:00 43.567010 -116.217841 292 2852ft 0kts
02-Mar-18 21:01 43.567010 -116.217841 292 2852ft 0kts
02-Mar-18 21:02 43.567010 -116.217841 292 2852ft 0kts
02-Mar-18 21:03 43.567068 -116.217304 227 2852ft 2kts
02-Mar-18 21:04 43.567429 -116.217139 168 2852ft 2kts
02-Mar-18 21:05 43.567568 -116.217167 175 2852ft 0kts
02-Mar-18 21:06 43.567568 -116.217167 175 2852ft 0kts
02-Mar-18 21:07 43.567568 -116.217167 175 2852ft 0kts
02-Mar-18 21:08 43.567568 -116.217167 175 2852ft 0kts
02-Mar-18 21:09 43.567568 -116.217167 175 2852ft 0kts
02-Mar-18 21:10 43.567568 -116.217167 175 2852ft 0kts
02-Mar-18 21:11 43.567568 -116.217167 174 2852ft 0kts
02-Mar-18 21:12 43.567568 -116.217167 174 2852ft 0kts
02-Mar-18 21:13 43.567568 -116.217167 174 2852ft 0kts
02-Mar-18 21:14 43.567568 -116.217167 174 2852ft 0kts
02-Mar-18 21:15 43.567568 -116.217167 174 2852ft 0kts
02-Mar-18 21:16 43.567568 -116.217167 174 2852ft 0kts
02-Mar-18 21:17 43.567568 -116.217167 174 2852ft 0kts
02-Mar-18 21:18 43.567568 -116.217167 174 2852ft 0kts
02-Mar-18 21:19 43.567568 -116.217167 174 2852ft 0kts
02-Mar-18 21:20 43.567568 -116.217167 174 2852ft 0kts
02-Mar-18 21:21 43.567568 -116.217167 174 2852ft 0kts
02-Mar-18 21:22 43.567568 -116.217167 174 2852ft 0kts
02-Mar-18 21:23 43.566826 -116.217103 175 2852ft 7kts
02-Mar-18 21:24 43.565289 -116.218799 294 2852ft 14kts
02-Mar-18 21:25 43.567259 -116.224783 298 2852ft 19kts
02-Mar-18 21:26 43.569716 -116.231773 295 2852ft 21kts
02-Mar-18 21:27 43.570875 -116.235638 253 2852ft 0kts
02-Mar-18 21:28 43.570138 -116.236295 172 2852ft 6kts
02-Mar-18 21:29 43.566106 -116.224800 115 2852ft 129kts
02-Mar-18 21:30 43.551200 -116.178695 114 4797ft 157kts
02-Mar-18 21:31 43.533192 -116.113323 115 7124ft 207kts
02-Mar-18 21:32 43.504284 -116.013018 115 9738ft 282kts
02-Mar-18 21:33 43.475249 -115.924503 116 11605ft 331kts
02-Mar-18 21:34 43.436467 -115.806051 117 14579ft 352kts
02-Mar-18 21:35 43.395128 -115.680505 118 17210ft 369kts
02-Mar-18 21:36 43.351744 -115.549485 119 19558ft 385kts
02-Mar-18 21:37 43.306636 -115.413977 120 21692ft 400kts
02-Mar-18 21:38 43.253157 -115.285502 129 23562ft 407kts
02-Mar-18 21:39 43.191994 -115.153504 130 25314ft 420kts
02-Mar-18 21:40 43.127599 -115.015336 131 26723ft 438kts
02-Mar-18 21:41 43.060804 -114.872684 132 28062ft 452kts
02-Mar-18 21:42 42.992288 -114.727002 133 29512ft 459kts
02-Mar-18 21:43 42.923947 -114.582302 134 31235ft 453kts
02-Mar-18 21:44 42.856392 -114.440782 135 32806ft 449kts
02-Mar-18 21:45 42.786629 -114.295448 135 32941ft 479kts
02-Mar-18 21:46 42.712744 -114.141030 134 33149ft 500kts
02-Mar-18 21:47 42.641846 -113.995865 137 33040ft 461kts
02-Mar-18 21:48 42.574230 -113.862159 143 32958ft 435kts
02-Mar-18 21:49 42.495276 -113.752338 148 32958ft 424kts
02-Mar-18 21:50 42.414728 -113.644731 148 32958ft 423kts
02-Mar-18 21:51 42.333922 -113.537134 148 32958ft 423kts
02-Mar-18 21:52 42.254906 -113.432325 148 31424ft 420kts
02-Mar-18 21:53 42.176348 -113.328184 148 30870ft 410kts
02-Mar-18 21:54 42.101785 -113.229608 148 30301ft 406kts
02-Mar-18 21:55 42.024192 -113.127790 148 29671ft 406kts
02-Mar-18 21:56 41.945244 -113.024606 147 28600ft 408kts
02-Mar-18 21:57 41.882637 -112.943012 147 27263ft 398kts
02-Mar-18 21:58 41.829779 -112.874592 146 26251ft 386kts
02-Mar-18 21:59 41.756363 -112.779564 145 24734ft 371kts
02-Mar-18 22:00 41.686142 -112.688865 145 23206ft 359kts
02-Mar-18 22:01 41.617545 -112.600457 144 21685ft 343kts
02-Mar-18 22:02 41.551283 -112.515528 144 19987ft 334kts
02-Mar-18 22:03 41.480309 -112.444002 154 18330ft 318kts
02-Mar-18 22:04 41.405490 -112.389832 156 16749ft 308kts
02-Mar-18 22:05 41.335290 -112.340030 156 15217ft 303kts
02-Mar-18 22:06 41.266227 -112.291052 155 13732ft 297kts
02-Mar-18 22:07 41.196039 -112.239550 153 12999ft 291kts
02-Mar-18 22:08 41.126296 -112.186144 153 13004ft 291kts
02-Mar-18 22:09 41.053830 -112.142911 172 13006ft 285kts
02-Mar-18 22:10 40.976531 -112.126135 175 12486ft 286kts
02-Mar-18 22:11 40.900015 -112.109714 177 11019ft 291kts
02-Mar-18 22:12 40.822951 -112.100516 180 11001ft 300kts
02-Mar-18 22:13 40.740339 -112.090932 180 10622ft 296kts
02-Mar-18 22:14 40.665017 -112.082099 181 10007ft 269kts
02-Mar-18 22:15 40.591895 -112.073566 181 9582ft 250kts
02-Mar-18 22:16 40.550319 -112.021282 79 9148ft 244kts
02-Mar-18 22:17 40.599334 -111.976356 353 7668ft 223kts
02-Mar-18 22:18 40.656135 -111.981672 347 6604ft 187kts
02-Mar-18 22:19 40.701411 -111.986837 346 5679ft 133kts
02-Mar-18 22:20 40.736670 -111.991044 347 5092ft 131kts
02-Mar-18 22:21 40.771727 -111.995042 348 4420ft 130kts
02-Mar-18 22:22 40.794221 -111.997082 18 4236ft 34kts
02-Mar-18 22:23 40.795437 -111.995621 81 4236ft 9kts
02-Mar-18 22:24 40.791830 -111.994353 169 4236ft 16kts
02-Mar-18 22:25 40.791322 -111.988493 107 4236ft 18kts
02-Mar-18 22:26 40.789085 -111.985580 133 4236ft 0kts
02-Mar-18 22:27 40.789085 -111.985580 133 4236ft 0kts

Navigation Log

Ident Type
Flight plan parsing failed, navigation log unavailable